sensor_id;sensor_type;location;lat;lon;timestamp;P1;durP1;ratioP1;P2;durP2;ratioP2
6378;SDS011;3222;48.858;10.128;2022-12-07T00:00:54;8.87;;;7.10;;
6378;SDS011;3222;48.858;10.128;2022-12-07T00:03:28;9.57;;;7.63;;
6378;SDS011;3222;48.858;10.128;2022-12-07T00:05:57;10.27;;;7.93;;
6378;SDS011;3222;48.858;10.128;2022-12-07T00:08:23;8.27;;;7.40;;
6378;SDS011;3222;48.858;10.128;2022-12-07T00:10:48;8.10;;;7.30;;
6378;SDS011;3222;48.858;10.128;2022-12-07T00:13:14;7.83;;;6.80;;
6378;SDS011;3222;48.858;10.128;2022-12-07T00:15:39;8.10;;;7.37;;
6378;SDS011;3222;48.858;10.128;2022-12-07T00:18:05;8.53;;;6.83;;
6378;SDS011;3222;48.858;10.128;2022-12-07T00:20:31;8.80;;;7.67;;
6378;SDS011;3222;48.858;10.128;2022-12-07T00:22:58;7.97;;;7.17;;
6378;SDS011;3222;48.858;10.128;2022-12-07T00:25:24;7.57;;;6.87;;
6378;SDS011;3222;48.858;10.128;2022-12-07T00:27:50;8.17;;;7.30;;
6378;SDS011;3222;48.858;10.128;2022-12-07T00:30:17;8.23;;;7.43;;
6378;SDS011;3222;48.858;10.128;2022-12-07T00:32:42;7.80;;;7.03;;
6378;SDS011;3222;48.858;10.128;2022-12-07T00:35:08;8.23;;;7.43;;
6378;SDS011;3222;48.858;10.128;2022-12-07T00:37:34;7.50;;;6.80;;
6378;SDS011;3222;48.858;10.128;2022-12-07T00:39:59;8.73;;;7.60;;
6378;SDS011;3222;48.858;10.128;2022-12-07T00:42:25;8.07;;;7.27;;
6378;SDS011;3222;48.858;10.128;2022-12-07T00:44:51;7.53;;;6.83;;
6378;SDS011;3222;48.858;10.128;2022-12-07T00:47:16;8.00;;;7.20;;
6378;SDS011;3222;48.858;10.128;2022-12-07T00:49:42;10.17;;;7.73;;
6378;SDS011;3222;48.858;10.128;2022-12-07T00:52:07;8.03;;;7.23;;
6378;SDS011;3222;48.858;10.128;2022-12-07T00:54:33;7.80;;;6.93;;
6378;SDS011;3222;48.858;10.128;2022-12-07T00:56:59;8.17;;;7.33;;
6378;SDS011;3222;48.858;10.128;2022-12-07T00:59:24;7.67;;;6.87;;
6378;SDS011;3222;48.858;10.128;2022-12-07T01:01:50;8.03;;;7.23;;
6378;SDS011;3222;48.858;10.128;2022-12-07T01:04:16;8.27;;;7.47;;
6378;SDS011;3222;48.858;10.128;2022-12-07T01:06:41;8.07;;;7.27;;
6378;SDS011;3222;48.858;10.128;2022-12-07T01:09:07;7.67;;;6.83;;
6378;SDS011;3222;48.858;10.128;2022-12-07T01:11:33;8.77;;;6.90;;
6378;SDS011;3222;48.858;10.128;2022-12-07T01:13:59;8.57;;;7.20;;
6378;SDS011;3222;48.858;10.128;2022-12-07T01:16:27;7.87;;;7.13;;
6378;SDS011;3222;48.858;10.128;2022-12-07T01:18:54;7.83;;;7.03;;
6378;SDS011;3222;48.858;10.128;2022-12-07T01:21:25;8.03;;;6.77;;
6378;SDS011;3222;48.858;10.128;2022-12-07T01:23:58;8.40;;;7.07;;
6378;SDS011;3222;48.858;10.128;2022-12-07T01:26:24;7.93;;;7.13;;
6378;SDS011;3222;48.858;10.128;2022-12-07T01:28:50;8.33;;;7.03;;
6378;SDS011;3222;48.858;10.128;2022-12-07T01:31:17;9.03;;;7.17;;
6378;SDS011;3222;48.858;10.128;2022-12-07T01:33:45;7.50;;;6.80;;
6378;SDS011;3222;48.858;10.128;2022-12-07T01:36:26;8.67;;;7.23;;
6378;SDS011;3222;48.858;10.128;2022-12-07T01:38:57;7.50;;;6.80;;
6378;SDS011;3222;48.858;10.128;2022-12-07T01:41:25;7.83;;;7.03;;
6378;SDS011;3222;48.858;10.128;2022-12-07T01:46:48;8.00;;;7.13;;
6378;SDS011;3222;48.858;10.128;2022-12-07T01:49:17;8.47;;;7.53;;
6378;SDS011;3222;48.858;10.128;2022-12-07T01:51:44;8.27;;;7.40;;
6378;SDS011;3222;48.858;10.128;2022-12-07T01:54:12;8.37;;;7.57;;
6378;SDS011;3222;48.858;10.128;2022-12-07T01:56:40;7.50;;;6.80;;
6378;SDS011;3222;48.858;10.128;2022-12-07T01:59:09;8.73;;;7.70;;
6378;SDS011;3222;48.858;10.128;2022-12-07T02:01:35;8.17;;;7.37;;
6378;SDS011;3222;48.858;10.128;2022-12-07T02:04:00;7.47;;;6.77;;
6378;SDS011;3222;48.858;10.128;2022-12-07T02:06:27;7.87;;;7.07;;
6378;SDS011;3222;48.858;10.128;2022-12-07T02:08:53;8.73;;;7.63;;
6378;SDS011;3222;48.858;10.128;2022-12-07T02:11:19;8.90;;;7.30;;
6378;SDS011;3222;48.858;10.128;2022-12-07T02:13:45;9.20;;;7.40;;
6378;SDS011;3222;48.858;10.128;2022-12-07T02:24:30;8.03;;;7.23;;
6378;SDS011;3222;48.858;10.128;2022-12-07T02:27:20;8.23;;;7.40;;
6378;SDS011;3222;48.858;10.128;2022-12-07T02:30:04;8.40;;;7.40;;
6378;SDS011;3222;48.858;10.128;2022-12-07T02:38:20;7.77;;;6.97;;
6378;SDS011;3222;48.858;10.128;2022-12-07T02:44:14;8.47;;;7.57;;
6378;SDS011;3222;48.858;10.128;2022-12-07T02:46:54;8.80;;;7.03;;
6378;SDS011;3222;48.858;10.128;2022-12-07T02:49:23;9.17;;;8.10;;
6378;SDS011;3222;48.858;10.128;2022-12-07T02:51:51;8.97;;;7.50;;
6378;SDS011;3222;48.858;10.128;2022-12-07T02:54:18;9.53;;;8.23;;
6378;SDS011;3222;48.858;10.128;2022-12-07T03:02:19;8.70;;;7.80;;
6378;SDS011;3222;48.858;10.128;2022-12-07T03:11:20;9.93;;;7.87;;
6378;SDS011;3222;48.858;10.128;2022-12-07T03:14:13;10.93;;;7.77;;
6378;SDS011;3222;48.858;10.128;2022-12-07T03:16:56;9.03;;;8.10;;
6378;SDS011;3222;48.858;10.128;2022-12-07T03:19:27;8.60;;;7.70;;
6378;SDS011;3222;48.858;10.128;2022-12-07T03:21:57;9.70;;;8.40;;
6378;SDS011;3222;48.858;10.128;2022-12-07T03:24:29;10.63;;;8.87;;
6378;SDS011;3222;48.858;10.128;2022-12-07T03:27:06;11.20;;;8.70;;
6378;SDS011;3222;48.858;10.128;2022-12-07T03:32:26;9.07;;;8.13;;
6378;SDS011;3222;48.858;10.128;2022-12-07T03:43:32;11.47;;;8.60;;
6378;SDS011;3222;48.858;10.128;2022-12-07T03:46:17;10.90;;;8.83;;
6378;SDS011;3222;48.858;10.128;2022-12-07T03:51:30;9.87;;;8.77;;
6378;SDS011;3222;48.858;10.128;2022-12-07T03:56:53;11.23;;;9.43;;
6378;SDS011;3222;48.858;10.128;2022-12-07T03:59:21;9.50;;;8.50;;
6378;SDS011;3222;48.858;10.128;2022-12-07T04:01:54;10.40;;;9.00;;
6378;SDS011;3222;48.858;10.128;2022-12-07T04:04:22;12.90;;;9.57;;
6378;SDS011;3222;48.858;10.128;2022-12-07T04:06:49;10.50;;;9.00;;
6378;SDS011;3222;48.858;10.128;2022-12-07T04:09:15;11.47;;;9.13;;
6378;SDS011;3222;48.858;10.128;2022-12-07T04:11:41;10.60;;;9.23;;
6378;SDS011;3222;48.858;10.128;2022-12-07T04:14:07;12.33;;;9.33;;
6378;SDS011;3222;48.858;10.128;2022-12-07T04:16:49;10.33;;;8.93;;
6378;SDS011;3222;48.858;10.128;2022-12-07T04:19:21;10.10;;;8.93;;
6378;SDS011;3222;48.858;10.128;2022-12-07T04:21:48;11.57;;;9.53;;
6378;SDS011;3222;48.858;10.128;2022-12-07T04:24:14;11.93;;;9.67;;
6378;SDS011;3222;48.858;10.128;2022-12-07T04:26:41;11.00;;;9.80;;
6378;SDS011;3222;48.858;10.128;2022-12-07T04:29:07;12.73;;;10.03;;
6378;SDS011;3222;48.858;10.128;2022-12-07T04:31:34;13.10;;;10.00;;
6378;SDS011;3222;48.858;10.128;2022-12-07T04:34:00;11.00;;;9.73;;
6378;SDS011;3222;48.858;10.128;2022-12-07T04:36:26;11.17;;;9.97;;
6378;SDS011;3222;48.858;10.128;2022-12-07T04:38:52;12.27;;;10.33;;
6378;SDS011;3222;48.858;10.128;2022-12-07T04:41:20;10.87;;;9.77;;
6378;SDS011;3222;48.858;10.128;2022-12-07T04:43:55;11.53;;;10.00;;
6378;SDS011;3222;48.858;10.128;2022-12-07T04:46:25;12.33;;;10.17;;
6378;SDS011;3222;48.858;10.128;2022-12-07T04:48:51;11.63;;;9.20;;
6378;SDS011;3222;48.858;10.128;2022-12-07T04:51:19;13.47;;;9.87;;
6378;SDS011;3222;48.858;10.128;2022-12-07T04:53:46;11.57;;;9.70;;
6378;SDS011;3222;48.858;10.128;2022-12-07T04:56:13;12.73;;;9.93;;
6378;SDS011;3222;48.858;10.128;2022-12-07T04:58:39;13.47;;;10.27;;
6378;SDS011;3222;48.858;10.128;2022-12-07T05:01:05;13.70;;;10.93;;
6378;SDS011;3222;48.858;10.128;2022-12-07T05:03:30;12.60;;;10.37;;
6378;SDS011;3222;48.858;10.128;2022-12-07T05:05:56;10.50;;;9.03;;
6378;SDS011;3222;48.858;10.128;2022-12-07T05:08:22;12.20;;;9.50;;
6378;SDS011;3222;48.858;10.128;2022-12-07T05:10:48;11.70;;;10.10;;
6378;SDS011;3222;48.858;10.128;2022-12-07T05:13:14;11.27;;;9.83;;
6378;SDS011;3222;48.858;10.128;2022-12-07T05:15:40;10.73;;;9.23;;
6378;SDS011;3222;48.858;10.128;2022-12-07T05:18:07;11.43;;;9.67;;
6378;SDS011;3222;48.858;10.128;2022-12-07T05:20:34;13.37;;;10.43;;
6378;SDS011;3222;48.858;10.128;2022-12-07T05:22:59;12.17;;;10.07;;
6378;SDS011;3222;48.858;10.128;2022-12-07T05:25:25;14.37;;;10.07;;
6378;SDS011;3222;48.858;10.128;2022-12-07T05:27:51;11.83;;;9.40;;
6378;SDS011;3222;48.858;10.128;2022-12-07T05:30:16;12.87;;;10.07;;
6378;SDS011;3222;48.858;10.128;2022-12-07T05:32:42;13.47;;;10.70;;
6378;SDS011;3222;48.858;10.128;2022-12-07T05:35:08;12.30;;;9.83;;
6378;SDS011;3222;48.858;10.128;2022-12-07T05:37:34;10.40;;;8.83;;
6378;SDS011;3222;48.858;10.128;2022-12-07T05:40:00;11.67;;;9.37;;
6378;SDS011;3222;48.858;10.128;2022-12-07T05:42:26;11.00;;;8.90;;
6378;SDS011;3222;48.858;10.128;2022-12-07T05:44:51;10.90;;;9.60;;
6378;SDS011;3222;48.858;10.128;2022-12-07T05:47:17;14.50;;;10.57;;
6378;SDS011;3222;48.858;10.128;2022-12-07T05:49:42;14.90;;;10.47;;
6378;SDS011;3222;48.858;10.128;2022-12-07T05:52:08;15.97;;;11.27;;
6378;SDS011;3222;48.858;10.128;2022-12-07T05:54:34;15.57;;;11.23;;
6378;SDS011;3222;48.858;10.128;2022-12-07T05:56:59;14.67;;;10.63;;
6378;SDS011;3222;48.858;10.128;2022-12-07T05:59:25;13.47;;;10.23;;
6378;SDS011;3222;48.858;10.128;2022-12-07T06:04:22;19.63;;;12.17;;
6378;SDS011;3222;48.858;10.128;2022-12-07T06:06:50;18.30;;;11.90;;
6378;SDS011;3222;48.858;10.128;2022-12-07T06:09:16;13.73;;;10.47;;
6378;SDS011;3222;48.858;10.128;2022-12-07T06:11:43;15.07;;;10.83;;
6378;SDS011;3222;48.858;10.128;2022-12-07T06:14:28;14.00;;;9.67;;
6378;SDS011;3222;48.858;10.128;2022-12-07T06:16:53;13.60;;;9.43;;
6378;SDS011;3222;48.858;10.128;2022-12-07T06:19:19;11.90;;;9.27;;
6378;SDS011;3222;48.858;10.128;2022-12-07T06:21:45;12.60;;;9.77;;
6378;SDS011;3222;48.858;10.128;2022-12-07T06:24:11;12.10;;;10.10;;
6378;SDS011;3222;48.858;10.128;2022-12-07T06:26:37;14.83;;;11.13;;
6378;SDS011;3222;48.858;10.128;2022-12-07T06:29:03;18.63;;;12.27;;
6378;SDS011;3222;48.858;10.128;2022-12-07T06:31:29;18.87;;;13.23;;
6378;SDS011;3222;48.858;10.128;2022-12-07T06:34:01;19.57;;;12.63;;
6378;SDS011;3222;48.858;10.128;2022-12-07T06:36:32;17.23;;;13.30;;
6378;SDS011;3222;48.858;10.128;2022-12-07T06:38:58;15.67;;;12.13;;
6378;SDS011;3222;48.858;10.128;2022-12-07T06:41:23;16.23;;;11.30;;
6378;SDS011;3222;48.858;10.128;2022-12-07T06:43:49;16.33;;;12.33;;
6378;SDS011;3222;48.858;10.128;2022-12-07T06:46:15;14.30;;;11.70;;
6378;SDS011;3222;48.858;10.128;2022-12-07T06:48:41;14.50;;;11.37;;
6378;SDS011;3222;48.858;10.128;2022-12-07T06:51:08;13.47;;;11.00;;
6378;SDS011;3222;48.858;10.128;2022-12-07T06:53:35;15.47;;;11.60;;
6378;SDS011;3222;48.858;10.128;2022-12-07T06:56:01;13.30;;;11.40;;
6378;SDS011;3222;48.858;10.128;2022-12-07T06:58:27;15.80;;;11.37;;
6378;SDS011;3222;48.858;10.128;2022-12-07T07:00:53;15.90;;;11.90;;
6378;SDS011;3222;48.858;10.128;2022-12-07T07:03:19;15.37;;;11.00;;
6378;SDS011;3222;48.858;10.128;2022-12-07T07:05:44;13.07;;;10.93;;
6378;SDS011;3222;48.858;10.128;2022-12-07T07:08:10;14.70;;;10.63;;
6378;SDS011;3222;48.858;10.128;2022-12-07T07:10:37;14.13;;;10.80;;
6378;SDS011;3222;48.858;10.128;2022-12-07T07:13:03;14.87;;;10.97;;
6378;SDS011;3222;48.858;10.128;2022-12-07T07:15:30;13.20;;;10.83;;
6378;SDS011;3222;48.858;10.128;2022-12-07T07:17:56;14.77;;;11.50;;
6378;SDS011;3222;48.858;10.128;2022-12-07T07:20:22;15.17;;;10.90;;
6378;SDS011;3222;48.858;10.128;2022-12-07T07:22:48;14.10;;;10.57;;
6378;SDS011;3222;48.858;10.128;2022-12-07T07:25:14;16.43;;;11.13;;
6378;SDS011;3222;48.858;10.128;2022-12-07T07:27:40;13.43;;;10.57;;
6378;SDS011;3222;48.858;10.128;2022-12-07T07:30:06;15.30;;;11.53;;
6378;SDS011;3222;48.858;10.128;2022-12-07T07:32:32;14.40;;;10.63;;
6378;SDS011;3222;48.858;10.128;2022-12-07T07:34:57;14.80;;;11.33;;
6378;SDS011;3222;48.858;10.128;2022-12-07T07:37:23;15.23;;;11.00;;
6378;SDS011;3222;48.858;10.128;2022-12-07T07:39:49;15.07;;;11.80;;
6378;SDS011;3222;48.858;10.128;2022-12-07T07:42:15;14.37;;;11.33;;
6378;SDS011;3222;48.858;10.128;2022-12-07T07:44:42;15.97;;;11.60;;
6378;SDS011;3222;48.858;10.128;2022-12-07T07:47:08;16.07;;;11.47;;
6378;SDS011;3222;48.858;10.128;2022-12-07T07:49:33;15.20;;;11.37;;
6378;SDS011;3222;48.858;10.128;2022-12-07T07:51:59;18.70;;;12.20;;
6378;SDS011;3222;48.858;10.128;2022-12-07T07:54:25;17.87;;;11.80;;
6378;SDS011;3222;48.858;10.128;2022-12-07T07:56:51;17.67;;;11.40;;
6378;SDS011;3222;48.858;10.128;2022-12-07T07:59:18;16.97;;;11.13;;
6378;SDS011;3222;48.858;10.128;2022-12-07T08:01:43;16.17;;;11.10;;
6378;SDS011;3222;48.858;10.128;2022-12-07T08:04:09;14.93;;;11.43;;
6378;SDS011;3222;48.858;10.128;2022-12-07T08:06:35;16.23;;;11.23;;
6378;SDS011;3222;48.858;10.128;2022-12-07T08:09:00;13.80;;;10.87;;
6378;SDS011;3222;48.858;10.128;2022-12-07T08:11:26;14.77;;;10.33;;
6378;SDS011;3222;48.858;10.128;2022-12-07T08:13:52;15.73;;;10.83;;
6378;SDS011;3222;48.858;10.128;2022-12-07T08:16:18;14.87;;;10.77;;
6378;SDS011;3222;48.858;10.128;2022-12-07T08:18:43;16.17;;;10.43;;
6378;SDS011;3222;48.858;10.128;2022-12-07T08:21:10;12.93;;;9.43;;
6378;SDS011;3222;48.858;10.128;2022-12-07T08:23:38;15.87;;;9.80;;
6378;SDS011;3222;48.858;10.128;2022-12-07T08:26:05;14.30;;;10.50;;
6378;SDS011;3222;48.858;10.128;2022-12-07T08:28:35;13.27;;;10.47;;
6378;SDS011;3222;48.858;10.128;2022-12-07T08:31:02;11.90;;;9.50;;
6378;SDS011;3222;48.858;10.128;2022-12-07T08:33:30;15.03;;;10.30;;
6378;SDS011;3222;48.858;10.128;2022-12-07T08:36:00;12.23;;;9.47;;
6378;SDS011;3222;48.858;10.128;2022-12-07T08:38:30;12.63;;;9.60;;
6378;SDS011;3222;48.858;10.128;2022-12-07T08:40:56;13.53;;;10.00;;
6378;SDS011;3222;48.858;10.128;2022-12-07T08:43:23;14.63;;;10.20;;
6378;SDS011;3222;48.858;10.128;2022-12-07T08:45:52;15.13;;;9.63;;
6378;SDS011;3222;48.858;10.128;2022-12-07T08:48:28;12.57;;;8.97;;
6378;SDS011;3222;48.858;10.128;2022-12-07T08:50:55;12.33;;;10.10;;
6378;SDS011;3222;48.858;10.128;2022-12-07T08:53:21;15.67;;;10.10;;
6378;SDS011;3222;48.858;10.128;2022-12-07T08:55:47;14.50;;;10.00;;
6378;SDS011;3222;48.858;10.128;2022-12-07T08:58:13;12.20;;;9.13;;
6378;SDS011;3222;48.858;10.128;2022-12-07T09:00:39;11.93;;;8.93;;
6378;SDS011;3222;48.858;10.128;2022-12-07T09:03:05;12.90;;;9.70;;
6378;SDS011;3222;48.858;10.128;2022-12-07T09:05:31;11.67;;;8.93;;
6378;SDS011;3222;48.858;10.128;2022-12-07T09:07:59;11.43;;;9.00;;
6378;SDS011;3222;48.858;10.128;2022-12-07T09:10:26;14.53;;;9.23;;
6378;SDS011;3222;48.858;10.128;2022-12-07T09:12:52;11.47;;;8.73;;
6378;SDS011;3222;48.858;10.128;2022-12-07T09:15:18;12.63;;;8.17;;
6378;SDS011;3222;48.858;10.128;2022-12-07T09:17:43;11.50;;;8.13;;
6378;SDS011;3222;48.858;10.128;2022-12-07T09:20:09;10.87;;;8.20;;
6378;SDS011;3222;48.858;10.128;2022-12-07T09:22:35;11.17;;;8.10;;
6378;SDS011;3222;48.858;10.128;2022-12-07T09:25:01;11.03;;;8.27;;
6378;SDS011;3222;48.858;10.128;2022-12-07T09:27:27;9.23;;;7.73;;
6378;SDS011;3222;48.858;10.128;2022-12-07T09:29:53;10.47;;;8.27;;
6378;SDS011;3222;48.858;10.128;2022-12-07T09:32:18;10.30;;;7.83;;
6378;SDS011;3222;48.858;10.128;2022-12-07T09:34:44;10.27;;;7.60;;
6378;SDS011;3222;48.858;10.128;2022-12-07T09:37:10;8.80;;;6.87;;
6378;SDS011;3222;48.858;10.128;2022-12-07T09:39:39;10.07;;;7.80;;
6378;SDS011;3222;48.858;10.128;2022-12-07T09:42:05;10.93;;;7.40;;
6378;SDS011;3222;48.858;10.128;2022-12-07T09:44:33;7.93;;;7.13;;
6378;SDS011;3222;48.858;10.128;2022-12-07T09:46:59;8.10;;;6.73;;
6378;SDS011;3222;48.858;10.128;2022-12-07T09:49:31;9.83;;;7.37;;
6378;SDS011;3222;48.858;10.128;2022-12-07T09:52:39;8.40;;;7.10;;
6378;SDS011;3222;48.858;10.128;2022-12-07T09:54:51;8.73;;;6.60;;
6378;SDS011;3222;48.858;10.128;2022-12-07T09:57:18;9.60;;;7.40;;
6378;SDS011;3222;48.858;10.128;2022-12-07T10:00:00;8.03;;;6.73;;
6378;SDS011;3222;48.858;10.128;2022-12-07T10:02:37;10.00;;;7.10;;
6378;SDS011;3222;48.858;10.128;2022-12-07T10:05:07;8.57;;;7.20;;
6378;SDS011;3222;48.858;10.128;2022-12-07T10:07:41;8.93;;;7.03;;
6378;SDS011;3222;48.858;10.128;2022-12-07T10:10:22;7.67;;;6.47;;
6378;SDS011;3222;48.858;10.128;2022-12-07T10:13:03;10.53;;;7.73;;
6378;SDS011;3222;48.858;10.128;2022-12-07T10:15:48;9.47;;;7.13;;
6378;SDS011;3222;48.858;10.128;2022-12-07T10:23:26;9.23;;;7.30;;
6378;SDS011;3222;48.858;10.128;2022-12-07T10:25:52;9.93;;;8.10;;
6378;SDS011;3222;48.858;10.128;2022-12-07T10:28:20;8.47;;;7.60;;
6378;SDS011;3222;48.858;10.128;2022-12-07T10:30:56;11.90;;;8.27;;
6378;SDS011;3222;48.858;10.128;2022-12-07T10:33:31;12.20;;;8.50;;
6378;SDS011;3222;48.858;10.128;2022-12-07T10:35:58;10.07;;;8.17;;
6378;SDS011;3222;48.858;10.128;2022-12-07T10:38:25;11.77;;;9.13;;
6378;SDS011;3222;48.858;10.128;2022-12-07T10:41:03;10.40;;;7.83;;
6378;SDS011;3222;48.858;10.128;2022-12-07T10:43:30;10.17;;;8.10;;
6378;SDS011;3222;48.858;10.128;2022-12-07T10:48:54;9.10;;;7.67;;
6378;SDS011;3222;48.858;10.128;2022-12-07T10:51:51;10.10;;;7.77;;
6378;SDS011;3222;48.858;10.128;2022-12-07T11:05:25;9.90;;;7.73;;
6378;SDS011;3222;48.858;10.128;2022-12-07T11:10:26;11.70;;;8.57;;
6378;SDS011;3222;48.858;10.128;2022-12-07T11:16:04;13.07;;;8.40;;
6378;SDS011;3222;48.858;10.128;2022-12-07T11:21:08;11.33;;;8.17;;
6378;SDS011;3222;48.858;10.128;2022-12-07T11:24:06;11.33;;;8.20;;
6378;SDS011;3222;48.858;10.128;2022-12-07T11:26:48;10.10;;;7.77;;
6378;SDS011;3222;48.858;10.128;2022-12-07T11:34:36;9.73;;;7.50;;
6378;SDS011;3222;48.858;10.128;2022-12-07T11:37:09;9.47;;;7.03;;
6378;SDS011;3222;48.858;10.128;2022-12-07T11:39:41;8.07;;;6.93;;
6378;SDS011;3222;48.858;10.128;2022-12-07T11:42:22;8.43;;;6.93;;
6378;SDS011;3222;48.858;10.128;2022-12-07T11:44:52;8.97;;;7.13;;
6378;SDS011;3222;48.858;10.128;2022-12-07T11:47:47;8.90;;;7.10;;
6378;SDS011;3222;48.858;10.128;2022-12-07T11:53:02;9.10;;;7.03;;
6378;SDS011;3222;48.858;10.128;2022-12-07T11:55:52;9.93;;;6.73;;
6378;SDS011;3222;48.858;10.128;2022-12-07T12:01:08;7.77;;;6.77;;
6378;SDS011;3222;48.858;10.128;2022-12-07T12:03:45;10.13;;;6.60;;
6378;SDS011;3222;48.858;10.128;2022-12-07T12:06:12;8.20;;;6.40;;
6378;SDS011;3222;48.858;10.128;2022-12-07T12:08:39;9.13;;;6.87;;
6378;SDS011;3222;48.858;10.128;2022-12-07T12:18:42;7.87;;;7.00;;
6378;SDS011;3222;48.858;10.128;2022-12-07T12:21:27;8.90;;;6.83;;
6378;SDS011;3222;48.858;10.128;2022-12-07T12:23:56;7.97;;;6.50;;
6378;SDS011;3222;48.858;10.128;2022-12-07T12:26:23;7.67;;;6.53;;
6378;SDS011;3222;48.858;10.128;2022-12-07T12:33:56;8.23;;;6.77;;
6378;SDS011;3222;48.858;10.128;2022-12-07T12:54:40;9.33;;;6.63;;
6378;SDS011;3222;48.858;10.128;2022-12-07T13:04:49;8.30;;;6.10;;
6378;SDS011;3222;48.858;10.128;2022-12-07T13:23:37;10.77;;;7.43;;
6378;SDS011;3222;48.858;10.128;2022-12-07T13:26:06;13.60;;;8.63;;
6378;SDS011;3222;48.858;10.128;2022-12-07T13:28:36;16.60;;;10.37;;
6378;SDS011;3222;48.858;10.128;2022-12-07T13:33:53;26.47;;;14.10;;
6378;SDS011;3222;48.858;10.128;2022-12-07T13:36:22;20.80;;;11.47;;
6378;SDS011;3222;48.858;10.128;2022-12-07T13:38:56;16.57;;;9.97;;
6378;SDS011;3222;48.858;10.128;2022-12-07T13:41:25;15.73;;;10.53;;
6378;SDS011;3222;48.858;10.128;2022-12-07T13:49:26;21.73;;;10.67;;
6378;SDS011;3222;48.858;10.128;2022-12-07T13:51:54;24.97;;;12.60;;
6378;SDS011;3222;48.858;10.128;2022-12-07T13:54:31;19.03;;;11.97;;
6378;SDS011;3222;48.858;10.128;2022-12-07T13:56:57;25.37;;;15.13;;
6378;SDS011;3222;48.858;10.128;2022-12-07T13:59:24;25.63;;;14.63;;
6378;SDS011;3222;48.858;10.128;2022-12-07T14:01:51;26.13;;;14.07;;
6378;SDS011;3222;48.858;10.128;2022-12-07T14:06:55;24.37;;;14.67;;
6378;SDS011;3222;48.858;10.128;2022-12-07T14:09:21;23.27;;;14.10;;
6378;SDS011;3222;48.858;10.128;2022-12-07T14:11:50;23.93;;;14.30;;
6378;SDS011;3222;48.858;10.128;2022-12-07T14:14:19;22.93;;;13.70;;
6378;SDS011;3222;48.858;10.128;2022-12-07T14:17:25;18.83;;;11.00;;
6378;SDS011;3222;48.858;10.128;2022-12-07T14:19:51;15.83;;;11.20;;
6378;SDS011;3222;48.858;10.128;2022-12-07T14:22:32;16.63;;;10.90;;
6378;SDS011;3222;48.858;10.128;2022-12-07T14:27:29;15.57;;;9.20;;
6378;SDS011;3222;48.858;10.128;2022-12-07T14:29:59;12.83;;;8.50;;
6378;SDS011;3222;48.858;10.128;2022-12-07T14:32:27;11.47;;;8.17;;
6378;SDS011;3222;48.858;10.128;2022-12-07T14:35:15;9.30;;;7.63;;
6378;SDS011;3222;48.858;10.128;2022-12-07T14:37:42;10.43;;;6.50;;
6378;SDS011;3222;48.858;10.128;2022-12-07T14:40:12;8.20;;;6.83;;
6378;SDS011;3222;48.858;10.128;2022-12-07T14:42:39;10.97;;;7.30;;
6378;SDS011;3222;48.858;10.128;2022-12-07T14:45:05;11.17;;;6.90;;
6378;SDS011;3222;48.858;10.128;2022-12-07T14:47:37;9.43;;;7.03;;
6378;SDS011;3222;48.858;10.128;2022-12-07T14:50:03;11.60;;;8.07;;
6378;SDS011;3222;48.858;10.128;2022-12-07T14:52:29;12.90;;;8.60;;
6378;SDS011;3222;48.858;10.128;2022-12-07T14:54:55;13.37;;;8.83;;
6378;SDS011;3222;48.858;10.128;2022-12-07T14:57:21;13.10;;;8.83;;
6378;SDS011;3222;48.858;10.128;2022-12-07T14:59:47;13.13;;;8.93;;
6378;SDS011;3222;48.858;10.128;2022-12-07T15:02:14;14.93;;;9.70;;
6378;SDS011;3222;48.858;10.128;2022-12-07T15:04:40;15.80;;;10.53;;
6378;SDS011;3222;48.858;10.128;2022-12-07T15:07:09;16.27;;;10.53;;
6378;SDS011;3222;48.858;10.128;2022-12-07T15:09:39;16.70;;;11.03;;
6378;SDS011;3222;48.858;10.128;2022-12-07T15:12:05;16.80;;;10.53;;
6378;SDS011;3222;48.858;10.128;2022-12-07T15:14:31;20.20;;;10.87;;
6378;SDS011;3222;48.858;10.128;2022-12-07T15:16:56;16.70;;;10.63;;
6378;SDS011;3222;48.858;10.128;2022-12-07T15:19:23;18.80;;;11.73;;
6378;SDS011;3222;48.858;10.128;2022-12-07T15:21:52;15.93;;;11.57;;
6378;SDS011;3222;48.858;10.128;2022-12-07T15:24:19;14.40;;;9.43;;
6378;SDS011;3222;48.858;10.128;2022-12-07T15:26:45;13.67;;;9.93;;
6378;SDS011;3222;48.858;10.128;2022-12-07T15:29:11;12.90;;;9.70;;
6378;SDS011;3222;48.858;10.128;2022-12-07T15:31:37;10.50;;;8.53;;
6378;SDS011;3222;48.858;10.128;2022-12-07T15:34:03;12.97;;;8.90;;
6378;SDS011;3222;48.858;10.128;2022-12-07T15:36:30;16.87;;;11.23;;
6378;SDS011;3222;48.858;10.128;2022-12-07T15:38:57;15.73;;;11.47;;
6378;SDS011;3222;48.858;10.128;2022-12-07T15:41:23;13.97;;;10.40;;
6378;SDS011;3222;48.858;10.128;2022-12-07T15:43:49;12.40;;;9.70;;
6378;SDS011;3222;48.858;10.128;2022-12-07T15:46:35;11.87;;;9.53;;
6378;SDS011;3222;48.858;10.128;2022-12-07T15:49:02;11.97;;;8.90;;
6378;SDS011;3222;48.858;10.128;2022-12-07T15:51:29;11.07;;;8.70;;
6378;SDS011;3222;48.858;10.128;2022-12-07T15:53:56;11.03;;;8.80;;
6378;SDS011;3222;48.858;10.128;2022-12-07T15:56:23;10.17;;;8.60;;
6378;SDS011;3222;48.858;10.128;2022-12-07T15:58:48;13.77;;;10.70;;
6378;SDS011;3222;48.858;10.128;2022-12-07T16:01:17;12.13;;;9.97;;
6378;SDS011;3222;48.858;10.128;2022-12-07T16:03:44;12.10;;;9.17;;
6378;SDS011;3222;48.858;10.128;2022-12-07T16:06:10;10.90;;;9.23;;
6378;SDS011;3222;48.858;10.128;2022-12-07T16:08:37;11.77;;;9.37;;
6378;SDS011;3222;48.858;10.128;2022-12-07T16:11:10;10.03;;;8.13;;
6378;SDS011;3222;48.858;10.128;2022-12-07T16:13:36;9.90;;;8.90;;
6378;SDS011;3222;48.858;10.128;2022-12-07T16:16:06;9.63;;;8.50;;
6378;SDS011;3222;48.858;10.128;2022-12-07T16:18:34;9.90;;;8.43;;
6378;SDS011;3222;48.858;10.128;2022-12-07T16:21:00;11.50;;;8.97;;
6378;SDS011;3222;48.858;10.128;2022-12-07T16:23:26;9.60;;;8.43;;
6378;SDS011;3222;48.858;10.128;2022-12-07T16:25:52;9.90;;;7.73;;
6378;SDS011;3222;48.858;10.128;2022-12-07T16:28:18;8.70;;;7.80;;
6378;SDS011;3222;48.858;10.128;2022-12-07T16:30:44;8.43;;;7.50;;
6378;SDS011;3222;48.858;10.128;2022-12-07T16:33:10;8.07;;;7.27;;
6378;SDS011;3222;48.858;10.128;2022-12-07T16:35:38;8.93;;;8.03;;
6378;SDS011;3222;48.858;10.128;2022-12-07T16:38:06;8.77;;;7.60;;
6378;SDS011;3222;48.858;10.128;2022-12-07T16:40:32;9.33;;;7.80;;
6378;SDS011;3222;48.858;10.128;2022-12-07T16:42:57;8.00;;;7.20;;
6378;SDS011;3222;48.858;10.128;2022-12-07T16:45:23;9.23;;;8.33;;
6378;SDS011;3222;48.858;10.128;2022-12-07T16:47:49;8.00;;;7.13;;
6378;SDS011;3222;48.858;10.128;2022-12-07T16:50:14;8.20;;;7.30;;
6378;SDS011;3222;48.858;10.128;2022-12-07T16:52:40;10.00;;;7.63;;
6378;SDS011;3222;48.858;10.128;2022-12-07T16:55:06;9.60;;;8.20;;
6378;SDS011;3222;48.858;10.128;2022-12-07T16:57:32;9.90;;;7.97;;
6378;SDS011;3222;48.858;10.128;2022-12-07T16:59:58;8.80;;;7.43;;
6378;SDS011;3222;48.858;10.128;2022-12-07T17:02:23;8.27;;;7.10;;
6378;SDS011;3222;48.858;10.128;2022-12-07T17:04:50;9.43;;;7.73;;
6378;SDS011;3222;48.858;10.128;2022-12-07T17:07:16;9.13;;;7.47;;
6378;SDS011;3222;48.858;10.128;2022-12-07T17:09:42;9.67;;;7.97;;
6378;SDS011;3222;48.858;10.128;2022-12-07T17:12:07;9.20;;;7.87;;
6378;SDS011;3222;48.858;10.128;2022-12-07T17:14:33;9.63;;;8.00;;
6378;SDS011;3222;48.858;10.128;2022-12-07T17:17:17;9.47;;;8.33;;
6378;SDS011;3222;48.858;10.128;2022-12-07T17:19:43;10.33;;;8.30;;
6378;SDS011;3222;48.858;10.128;2022-12-07T17:22:08;10.43;;;8.77;;
6378;SDS011;3222;48.858;10.128;2022-12-07T17:24:37;11.50;;;9.00;;
6378;SDS011;3222;48.858;10.128;2022-12-07T17:27:03;12.10;;;9.10;;
6378;SDS011;3222;48.858;10.128;2022-12-07T17:29:29;9.97;;;8.27;;
6378;SDS011;3222;48.858;10.128;2022-12-07T17:31:54;12.30;;;9.27;;
6378;SDS011;3222;48.858;10.128;2022-12-07T17:34:20;11.00;;;8.87;;